sensor_id;sensor_type;location;lat;lon;timestamp;pressure;altitude;pressure_sealevel;temperature
42119;BMP280;27783;42.782;23.274;2023-08-06T00:02:03;94408.97;;;18.51
42119;BMP280;27783;42.782;23.274;2023-08-06T00:04:29;94400.31;;;18.78
42119;BMP280;27783;42.782;23.274;2023-08-06T00:06:54;94394.31;;;18.69
42119;BMP280;27783;42.782;23.274;2023-08-06T00:09:19;94383.88;;;18.34
42119;BMP280;27783;42.782;23.274;2023-08-06T00:11:45;94409.72;;;18.65
42119;BMP280;27783;42.782;23.274;2023-08-06T00:14:12;94425.69;;;18.74
42119;BMP280;27783;42.782;23.274;2023-08-06T00:16:37;94449.28;;;18.75
42119;BMP280;27783;42.782;23.274;2023-08-06T00:19:03;94443.53;;;18.68
42119;BMP280;27783;42.782;23.274;2023-08-06T00:21:28;94434.31;;;18.92
42119;BMP280;27783;42.782;23.274;2023-08-06T00:23:53;94421.50;;;18.59
42119;BMP280;27783;42.782;23.274;2023-08-06T00:26:19;94393.69;;;18.88
42119;BMP280;27783;42.782;23.274;2023-08-06T00:28:45;94391.66;;;18.97
42119;BMP280;27783;42.782;23.274;2023-08-06T00:31:10;94409.13;;;18.70
42119;BMP280;27783;42.782;23.274;2023-08-06T00:33:35;94411.44;;;18.77
42119;BMP280;27783;42.782;23.274;2023-08-06T00:36:01;94413.13;;;18.88
42119;BMP280;27783;42.782;23.274;2023-08-06T00:38:27;94391.09;;;18.93
42119;BMP280;27783;42.782;23.274;2023-08-06T00:40:52;94370.84;;;18.87
42119;BMP280;27783;42.782;23.274;2023-08-06T00:43:18;94370.28;;;18.83
42119;BMP280;27783;42.782;23.274;2023-08-06T00:45:43;94366.03;;;18.77
42119;BMP280;27783;42.782;23.274;2023-08-06T00:48:09;94371.47;;;18.68
42119;BMP280;27783;42.782;23.274;2023-08-06T00:50:35;94380.09;;;18.63
42119;BMP280;27783;42.782;23.274;2023-08-06T00:53:00;94383.28;;;18.76
42119;BMP280;27783;42.782;23.274;2023-08-06T00:55:27;94385.72;;;18.65
42119;BMP280;27783;42.782;23.274;2023-08-06T00:57:53;94379.41;;;18.77
42119;BMP280;27783;42.782;23.274;2023-08-06T01:00:21;94372.31;;;18.88
42119;BMP280;27783;42.782;23.274;2023-08-06T01:02:48;94376.00;;;18.90
42119;BMP280;27783;42.782;23.274;2023-08-06T01:05:13;94363.84;;;18.75
42119;BMP280;27783;42.782;23.274;2023-08-06T01:10:40;94358.88;;;18.69
42119;BMP280;27783;42.782;23.274;2023-08-06T01:15:49;94336.41;;;18.75
42119;BMP280;27783;42.782;23.274;2023-08-06T01:18:15;94339.91;;;18.67
42119;BMP280;27783;42.782;23.274;2023-08-06T01:20:41;94347.78;;;18.61
42119;BMP280;27783;42.782;23.274;2023-08-06T01:23:06;94342.00;;;18.63
42119;BMP280;27783;42.782;23.274;2023-08-06T01:28:59;94351.31;;;18.81
42119;BMP280;27783;42.782;23.274;2023-08-06T01:31:33;94356.31;;;18.88
42119;BMP280;27783;42.782;23.274;2023-08-06T01:34:01;94346.72;;;18.82
42119;BMP280;27783;42.782;23.274;2023-08-06T01:36:28;94345.34;;;18.86
42119;BMP280;27783;42.782;23.274;2023-08-06T01:38:54;94335.13;;;18.99
42119;BMP280;27783;42.782;23.274;2023-08-06T01:41:19;94324.06;;;18.91
42119;BMP280;27783;42.782;23.274;2023-08-06T01:43:45;94326.66;;;18.86
42119;BMP280;27783;42.782;23.274;2023-08-06T01:46:10;94331.06;;;18.75
42119;BMP280;27783;42.782;23.274;2023-08-06T01:48:36;94337.53;;;18.69
42119;BMP280;27783;42.782;23.274;2023-08-06T01:51:04;94337.34;;;18.72
42119;BMP280;27783;42.782;23.274;2023-08-06T01:53:30;94341.50;;;18.73
42119;BMP280;27783;42.782;23.274;2023-08-06T01:55:56;94328.97;;;18.93
42119;BMP280;27783;42.782;23.274;2023-08-06T01:58:22;94341.56;;;18.78
42119;BMP280;27783;42.782;23.274;2023-08-06T02:00:47;94337.44;;;18.77
42119;BMP280;27783;42.782;23.274;2023-08-06T02:03:13;94322.44;;;18.80
42119;BMP280;27783;42.782;23.274;2023-08-06T02:05:38;94317.81;;;18.80
42119;BMP280;27783;42.782;23.274;2023-08-06T02:08:04;94323.34;;;18.77
42119;BMP280;27783;42.782;23.274;2023-08-06T02:10:30;94317.25;;;18.90
42119;BMP280;27783;42.782;23.274;2023-08-06T02:12:55;94311.53;;;18.83
42119;BMP280;27783;42.782;23.274;2023-08-06T02:15:21;94316.94;;;18.60
42119;BMP280;27783;42.782;23.274;2023-08-06T02:17:46;94314.28;;;18.60
42119;BMP280;27783;42.782;23.274;2023-08-06T02:20:11;94309.72;;;18.75
42119;BMP280;27783;42.782;23.274;2023-08-06T02:22:37;94306.50;;;18.85
42119;BMP280;27783;42.782;23.274;2023-08-06T02:25:02;94311.38;;;18.72
42119;BMP280;27783;42.782;23.274;2023-08-06T02:27:28;94316.44;;;18.70
42119;BMP280;27783;42.782;23.274;2023-08-06T02:29:53;94323.34;;;18.77
42119;BMP280;27783;42.782;23.274;2023-08-06T02:32:18;94333.31;;;18.76
42119;BMP280;27783;42.782;23.274;2023-08-06T02:34:44;94336.66;;;18.63
42119;BMP280;27783;42.782;23.274;2023-08-06T02:37:09;94337.47;;;18.54
42119;BMP280;27783;42.782;23.274;2023-08-06T02:39:35;94343.16;;;18.34
42119;BMP280;27783;42.782;23.274;2023-08-06T02:42:01;94336.56;;;18.43
42119;BMP280;27783;42.782;23.274;2023-08-06T02:44:28;94349.19;;;18.71
42119;BMP280;27783;42.782;23.274;2023-08-06T02:46:53;94369.84;;;18.48
42119;BMP280;27783;42.782;23.274;2023-08-06T02:49:19;94392.22;;;18.50
42119;BMP280;27783;42.782;23.274;2023-08-06T02:51:47;94394.94;;;18.41
42119;BMP280;27783;42.782;23.274;2023-08-06T02:54:12;94371.94;;;18.44
42119;BMP280;27783;42.782;23.274;2023-08-06T02:56:37;94340.44;;;18.56
42119;BMP280;27783;42.782;23.274;2023-08-06T02:59:03;94332.56;;;18.76
42119;BMP280;27783;42.782;23.274;2023-08-06T03:01:28;94348.84;;;18.78
42119;BMP280;27783;42.782;23.274;2023-08-06T03:03:54;94328.50;;;18.94
42119;BMP280;27783;42.782;23.274;2023-08-06T03:06:20;94301.91;;;18.86
42119;BMP280;27783;42.782;23.274;2023-08-06T03:08:45;94319.19;;;18.90
42119;BMP280;27783;42.782;23.274;2023-08-06T03:11:10;94343.50;;;18.78
42119;BMP280;27783;42.782;23.274;2023-08-06T03:13:36;94341.59;;;18.92
42119;BMP280;27783;42.782;23.274;2023-08-06T03:16:01;94302.81;;;18.83
42119;BMP280;27783;42.782;23.274;2023-08-06T03:18:27;94253.66;;;18.75
42119;BMP280;27783;42.782;23.274;2023-08-06T03:20:52;94226.50;;;18.48
42119;BMP280;27783;42.782;23.274;2023-08-06T03:23:18;94282.34;;;18.52
42119;BMP280;27783;42.782;23.274;2023-08-06T03:25:44;94330.13;;;18.50
42119;BMP280;27783;42.782;23.274;2023-08-06T03:28:10;94307.50;;;18.59
42119;BMP280;27783;42.782;23.274;2023-08-06T03:30:36;94249.50;;;18.46
42119;BMP280;27783;42.782;23.274;2023-08-06T03:33:01;94254.19;;;18.51
42119;BMP280;27783;42.782;23.274;2023-08-06T03:35:26;94292.59;;;18.53
42119;BMP280;27783;42.782;23.274;2023-08-06T03:37:52;94300.41;;;18.56
42119;BMP280;27783;42.782;23.274;2023-08-06T03:40:17;94303.25;;;18.53
42119;BMP280;27783;42.782;23.274;2023-08-06T03:42:42;94342.13;;;18.68
42119;BMP280;27783;42.782;23.274;2023-08-06T03:45:08;94353.97;;;18.67
42119;BMP280;27783;42.782;23.274;2023-08-06T03:47:34;94351.97;;;18.76
42119;BMP280;27783;42.782;23.274;2023-08-06T03:50:01;94347.38;;;18.91
42119;BMP280;27783;42.782;23.274;2023-08-06T03:52:26;94352.53;;;18.80
42119;BMP280;27783;42.782;23.274;2023-08-06T03:54:52;94354.28;;;18.69
42119;BMP280;27783;42.782;23.274;2023-08-06T03:57:17;94361.94;;;18.76
42119;BMP280;27783;42.782;23.274;2023-08-06T03:59:43;94357.59;;;18.78
42119;BMP280;27783;42.782;23.274;2023-08-06T04:02:08;94372.47;;;18.56
42119;BMP280;27783;42.782;23.274;2023-08-06T04:04:33;94367.31;;;18.67
42119;BMP280;27783;42.782;23.274;2023-08-06T04:06:59;94374.72;;;18.86
42119;BMP280;27783;42.782;23.274;2023-08-06T04:09:24;94370.03;;;18.95
42119;BMP280;27783;42.782;23.274;2023-08-06T04:11:49;94367.19;;;18.99
42119;BMP280;27783;42.782;23.274;2023-08-06T04:14:16;94373.03;;;19.17
42119;BMP280;27783;42.782;23.274;2023-08-06T04:16:41;94365.88;;;19.22
42119;BMP280;27783;42.782;23.274;2023-08-06T04:19:06;94374.97;;;19.16
42119;BMP280;27783;42.782;23.274;2023-08-06T04:21:32;94377.13;;;19.12
42119;BMP280;27783;42.782;23.274;2023-08-06T04:23:57;94372.53;;;19.13
42119;BMP280;27783;42.782;23.274;2023-08-06T04:26:23;94377.94;;;19.18
42119;BMP280;27783;42.782;23.274;2023-08-06T04:28:48;94368.06;;;19.10
42119;BMP280;27783;42.782;23.274;2023-08-06T04:31:14;94362.91;;;19.20
42119;BMP280;27783;42.782;23.274;2023-08-06T04:33:39;94352.91;;;19.16
42119;BMP280;27783;42.782;23.274;2023-08-06T04:36:05;94354.72;;;19.10
42119;BMP280;27783;42.782;23.274;2023-08-06T04:38:30;94346.81;;;19.15
42119;BMP280;27783;42.782;23.274;2023-08-06T04:40:56;94350.00;;;19.33
42119;BMP280;27783;42.782;23.274;2023-08-06T04:43:21;94334.50;;;19.37
42119;BMP280;27783;42.782;23.274;2023-08-06T04:45:51;94339.13;;;19.36
42119;BMP280;27783;42.782;23.274;2023-08-06T04:48:17;94333.34;;;19.24
42119;BMP280;27783;42.782;23.274;2023-08-06T04:50:44;94322.19;;;19.25
42119;BMP280;27783;42.782;23.274;2023-08-06T04:53:10;94317.69;;;19.17
42119;BMP280;27783;42.782;23.274;2023-08-06T04:55:35;94296.81;;;19.16
42119;BMP280;27783;42.782;23.274;2023-08-06T04:58:00;94306.19;;;19.11
42119;BMP280;27783;42.782;23.274;2023-08-06T05:00:26;94301.84;;;19.14
42119;BMP280;27783;42.782;23.274;2023-08-06T05:02:51;94292.84;;;19.11
42119;BMP280;27783;42.782;23.274;2023-08-06T05:05:16;94297.56;;;19.02
42119;BMP280;27783;42.782;23.274;2023-08-06T05:07:42;94290.72;;;19.01
42119;BMP280;27783;42.782;23.274;2023-08-06T05:10:07;94288.91;;;18.93
42119;BMP280;27783;42.782;23.274;2023-08-06T05:12:33;94291.66;;;18.98
42119;BMP280;27783;42.782;23.274;2023-08-06T05:14:58;94292.47;;;19.04
42119;BMP280;27783;42.782;23.274;2023-08-06T05:17:24;94301.03;;;19.08
42119;BMP280;27783;42.782;23.274;2023-08-06T05:19:49;94300.94;;;19.17
42119;BMP280;27783;42.782;23.274;2023-08-06T05:22:15;94315.41;;;19.58
42119;BMP280;27783;42.782;23.274;2023-08-06T05:24:40;94315.03;;;19.65
42119;BMP280;27783;42.782;23.274;2023-08-06T05:27:05;94309.81;;;19.75
42119;BMP280;27783;42.782;23.274;2023-08-06T05:29:31;94318.50;;;20.09
42119;BMP280;27783;42.782;23.274;2023-08-06T05:31:56;94300.53;;;20.29
42119;BMP280;27783;42.782;23.274;2023-08-06T05:34:21;94314.09;;;20.06
42119;BMP280;27783;42.782;23.274;2023-08-06T05:39:58;94303.25;;;20.35
42119;BMP280;27783;42.782;23.274;2023-08-06T05:42:24;94293.03;;;20.14
42119;BMP280;27783;42.782;23.274;2023-08-06T05:44:49;94300.69;;;20.45
42119;BMP280;27783;42.782;23.274;2023-08-06T05:47:14;94288.41;;;20.58
42119;BMP280;27783;42.782;23.274;2023-08-06T05:49:40;94271.94;;;20.90
42119;BMP280;27783;42.782;23.274;2023-08-06T05:52:05;94283.16;;;20.94
42119;BMP280;27783;42.782;23.274;2023-08-06T05:54:33;94286.63;;;21.00
42119;BMP280;27783;42.782;23.274;2023-08-06T05:56:58;94298.44;;;21.13
42119;BMP280;27783;42.782;23.274;2023-08-06T05:59:24;94322.81;;;21.15
42119;BMP280;27783;42.782;23.274;2023-08-06T06:01:49;94316.25;;;21.16
42119;BMP280;27783;42.782;23.274;2023-08-06T06:04:14;94317.91;;;20.88
42119;BMP280;27783;42.782;23.274;2023-08-06T06:06:40;94326.88;;;21.05
42119;BMP280;27783;42.782;23.274;2023-08-06T06:09:07;94321.19;;;21.63
42119;BMP280;27783;42.782;23.274;2023-08-06T06:11:32;94323.66;;;21.67
42119;BMP280;27783;42.782;23.274;2023-08-06T06:13:57;94332.47;;;22.08
42119;BMP280;27783;42.782;23.274;2023-08-06T06:16:23;94341.03;;;22.12
42119;BMP280;27783;42.782;23.274;2023-08-06T06:18:48;94352.78;;;22.25
42119;BMP280;27783;42.782;23.274;2023-08-06T06:21:14;94345.66;;;22.17
42119;BMP280;27783;42.782;23.274;2023-08-06T06:23:39;94352.75;;;22.20
42119;BMP280;27783;42.782;23.274;2023-08-06T06:26:04;94362.75;;;22.71
42119;BMP280;27783;42.782;23.274;2023-08-06T06:28:30;94364.50;;;22.89
42119;BMP280;27783;42.782;23.274;2023-08-06T06:31:00;94357.19;;;22.85
42119;BMP280;27783;42.782;23.274;2023-08-06T06:33:26;94354.47;;;22.85
42119;BMP280;27783;42.782;23.274;2023-08-06T06:35:51;94361.13;;;22.38
42119;BMP280;27783;42.782;23.274;2023-08-06T06:38:16;94368.44;;;23.10
42119;BMP280;27783;42.782;23.274;2023-08-06T06:40:42;94374.22;;;22.71
42119;BMP280;27783;42.782;23.274;2023-08-06T06:43:07;94378.91;;;22.81
42119;BMP280;27783;42.782;23.274;2023-08-06T06:45:34;94381.13;;;22.88
42119;BMP280;27783;42.782;23.274;2023-08-06T06:47:59;94380.34;;;22.77
42119;BMP280;27783;42.782;23.274;2023-08-06T06:50:24;94375.72;;;22.77
42119;BMP280;27783;42.782;23.274;2023-08-06T06:52:51;94375.78;;;23.04
42119;BMP280;27783;42.782;23.274;2023-08-06T06:55:16;94386.94;;;22.76
42119;BMP280;27783;42.782;23.274;2023-08-06T06:57:42;94387.50;;;23.01
42119;BMP280;27783;42.782;23.274;2023-08-06T07:00:08;94382.19;;;23.38
42119;BMP280;27783;42.782;23.274;2023-08-06T07:02:33;94394.94;;;22.65
42119;BMP280;27783;42.782;23.274;2023-08-06T07:04:58;94404.25;;;22.70
42119;BMP280;27783;42.782;23.274;2023-08-06T07:07:24;94393.03;;;22.76
42119;BMP280;27783;42.782;23.274;2023-08-06T07:09:49;94401.06;;;22.66
42119;BMP280;27783;42.782;23.274;2023-08-06T07:12:15;94407.03;;;22.91
42119;BMP280;27783;42.782;23.274;2023-08-06T07:14:40;94405.09;;;23.13
42119;BMP280;27783;42.782;23.274;2023-08-06T07:17:05;94407.13;;;23.34
42119;BMP280;27783;42.782;23.274;2023-08-06T07:19:31;94403.72;;;23.87
42119;BMP280;27783;42.782;23.274;2023-08-06T07:21:58;94406.66;;;23.56
42119;BMP280;27783;42.782;23.274;2023-08-06T07:24:24;94410.31;;;23.54
42119;BMP280;27783;42.782;23.274;2023-08-06T07:26:49;94408.09;;;23.68
42119;BMP280;27783;42.782;23.274;2023-08-06T07:29:17;94412.25;;;24.23
42119;BMP280;27783;42.782;23.274;2023-08-06T07:31:46;94417.38;;;24.21
42119;BMP280;27783;42.782;23.274;2023-08-06T07:34:11;94412.84;;;24.71
42119;BMP280;27783;42.782;23.274;2023-08-06T07:36:37;94408.97;;;24.51
42119;BMP280;27783;42.782;23.274;2023-08-06T07:39:03;94416.66;;;24.04
42119;BMP280;27783;42.782;23.274;2023-08-06T07:41:31;94417.91;;;23.98
42119;BMP280;27783;42.782;23.274;2023-08-06T07:43:58;94411.75;;;23.71
42119;BMP280;27783;42.782;23.274;2023-08-06T07:46:23;94415.69;;;23.59
42119;BMP280;27783;42.782;23.274;2023-08-06T07:48:49;94425.47;;;23.72
42119;BMP280;27783;42.782;23.274;2023-08-06T07:51:14;94424.72;;;23.61
42119;BMP280;27783;42.782;23.274;2023-08-06T07:53:39;94420.78;;;24.21
42119;BMP280;27783;42.782;23.274;2023-08-06T07:56:05;94402.41;;;24.96
42119;BMP280;27783;42.782;23.274;2023-08-06T07:58:30;94402.59;;;24.54
42119;BMP280;27783;42.782;23.274;2023-08-06T08:00:56;94400.75;;;24.11
42119;BMP280;27783;42.782;23.274;2023-08-06T08:03:22;94392.56;;;24.54
42119;BMP280;27783;42.782;23.274;2023-08-06T08:05:47;94394.25;;;24.57
42119;BMP280;27783;42.782;23.274;2023-08-06T08:08:13;94391.78;;;25.54
42119;BMP280;27783;42.782;23.274;2023-08-06T08:10:38;94388.91;;;25.02
42119;BMP280;27783;42.782;23.274;2023-08-06T08:13:04;94390.22;;;24.85
42119;BMP280;27783;42.782;23.274;2023-08-06T08:15:31;94386.00;;;24.94
42119;BMP280;27783;42.782;23.274;2023-08-06T08:17:58;94387.25;;;25.33
42119;BMP280;27783;42.782;23.274;2023-08-06T08:20:24;94391.72;;;25.93
42119;BMP280;27783;42.782;23.274;2023-08-06T08:22:49;94390.31;;;25.53
42119;BMP280;27783;42.782;23.274;2023-08-06T08:25:15;94384.06;;;25.34
42119;BMP280;27783;42.782;23.274;2023-08-06T08:27:41;94379.22;;;25.27
42119;BMP280;27783;42.782;23.274;2023-08-06T08:30:07;94386.38;;;25.88
42119;BMP280;27783;42.782;23.274;2023-08-06T08:32:32;94385.69;;;25.76
42119;BMP280;27783;42.782;23.274;2023-08-06T08:34:57;94380.34;;;25.71
42119;BMP280;27783;42.782;23.274;2023-08-06T08:37:23;94377.94;;;26.20
42119;BMP280;27783;42.782;23.274;2023-08-06T08:39:49;94379.88;;;25.67
42119;BMP280;27783;42.782;23.274;2023-08-06T08:42:15;94376.78;;;25.87
42119;BMP280;27783;42.782;23.274;2023-08-06T08:44:44;94382.47;;;25.83
42119;BMP280;27783;42.782;23.274;2023-08-06T08:47:10;94371.16;;;25.85
42119;BMP280;27783;42.782;23.274;2023-08-06T08:49:37;94376.94;;;25.37
42119;BMP280;27783;42.782;23.274;2023-08-06T08:52:03;94378.09;;;26.91
42119;BMP280;27783;42.782;23.274;2023-08-06T08:54:32;94377.25;;;26.37
42119;BMP280;27783;42.782;23.274;2023-08-06T08:56:57;94370.88;;;26.40
42119;BMP280;27783;42.782;23.274;2023-08-06T08:59:23;94367.25;;;26.32
42119;BMP280;27783;42.782;23.274;2023-08-06T09:01:48;94364.84;;;26.88
42119;BMP280;27783;42.782;23.274;2023-08-06T09:04:18;94356.75;;;27.24
42119;BMP280;27783;42.782;23.274;2023-08-06T09:06:46;94370.50;;;26.25
42119;BMP280;27783;42.782;23.274;2023-08-06T09:09:34;94363.50;;;26.35
42119;BMP280;27783;42.782;23.274;2023-08-06T09:12:11;94356.75;;;27.24
42119;BMP280;27783;42.782;23.274;2023-08-06T09:14:38;94354.69;;;27.30
42119;BMP280;27783;42.782;23.274;2023-08-06T09:17:04;94345.66;;;27.09
42119;BMP280;27783;42.782;23.274;2023-08-06T09:19:29;94348.44;;;27.04
42119;BMP280;27783;42.782;23.274;2023-08-06T09:21:58;94337.41;;;27.02
42119;BMP280;27783;42.782;23.274;2023-08-06T09:24:26;94337.94;;;27.31
42119;BMP280;27783;42.782;23.274;2023-08-06T09:26:52;94333.94;;;27.20
42119;BMP280;27783;42.782;23.274;2023-08-06T09:29:19;94332.72;;;27.82
42119;BMP280;27783;42.782;23.274;2023-08-06T09:31:50;94324.16;;;27.78
42119;BMP280;27783;42.782;23.274;2023-08-06T09:34:22;94333.78;;;26.94
42119;BMP280;27783;42.782;23.274;2023-08-06T09:36:52;94333.59;;;27.41
42119;BMP280;27783;42.782;23.274;2023-08-06T09:39:26;94330.47;;;27.68
42119;BMP280;27783;42.782;23.274;2023-08-06T09:41:56;94321.66;;;27.80
42119;BMP280;27783;42.782;23.274;2023-08-06T09:44:25;94315.97;;;28.46
42119;BMP280;27783;42.782;23.274;2023-08-06T09:46:55;94327.50;;;27.96
42119;BMP280;27783;42.782;23.274;2023-08-06T09:49:47;94316.41;;;27.69
42119;BMP280;27783;42.782;23.274;2023-08-06T09:52:13;94312.13;;;28.29
42119;BMP280;27783;42.782;23.274;2023-08-06T09:54:40;94310.31;;;27.51
42119;BMP280;27783;42.782;23.274;2023-08-06T09:57:05;94314.09;;;28.29
42119;BMP280;27783;42.782;23.274;2023-08-06T09:59:32;94309.59;;;27.93
42119;BMP280;27783;42.782;23.274;2023-08-06T10:01:58;94317.97;;;27.65
42119;BMP280;27783;42.782;23.274;2023-08-06T10:04:25;94320.91;;;27.79
42119;BMP280;27783;42.782;23.274;2023-08-06T10:06:50;94316.53;;;27.76
42119;BMP280;27783;42.782;23.274;2023-08-06T10:09:16;94314.06;;;27.48
42119;BMP280;27783;42.782;23.274;2023-08-06T10:11:43;94322.25;;;27.12
42119;BMP280;27783;42.782;23.274;2023-08-06T10:14:17;94332.31;;;26.58
42119;BMP280;27783;42.782;23.274;2023-08-06T10:16:44;94322.00;;;26.74
42119;BMP280;27783;42.782;23.274;2023-08-06T10:19:10;94327.59;;;27.48
42119;BMP280;27783;42.782;23.274;2023-08-06T10:21:40;94319.47;;;27.17
42119;BMP280;27783;42.782;23.274;2023-08-06T10:24:08;94329.50;;;27.04
42119;BMP280;27783;42.782;23.274;2023-08-06T10:26:37;94325.69;;;26.76
42119;BMP280;27783;42.782;23.274;2023-08-06T10:29:35;94330.84;;;26.74
42119;BMP280;27783;42.782;23.274;2023-08-06T10:32:01;94326.47;;;26.54
42119;BMP280;27783;42.782;23.274;2023-08-06T10:34:56;94332.47;;;26.47
42119;BMP280;27783;42.782;23.274;2023-08-06T10:37:35;94329.69;;;26.29
42119;BMP280;27783;42.782;23.274;2023-08-06T10:40:02;94338.88;;;26.44
42119;BMP280;27783;42.782;23.274;2023-08-06T10:42:28;94337.97;;;26.36
42119;BMP280;27783;42.782;23.274;2023-08-06T10:45:16;94345.44;;;26.48
42119;BMP280;27783;42.782;23.274;2023-08-06T10:47:43;94331.31;;;26.96
42119;BMP280;27783;42.782;23.274;2023-08-06T10:50:12;94335.03;;;26.75
42119;BMP280;27783;42.782;23.274;2023-08-06T10:52:39;94342.09;;;26.37
42119;BMP280;27783;42.782;23.274;2023-08-06T10:55:05;94346.53;;;26.17
42119;BMP280;27783;42.782;23.274;2023-08-06T10:57:31;94352.53;;;25.81
42119;BMP280;27783;42.782;23.274;2023-08-06T10:59:56;94368.97;;;25.83
42119;BMP280;27783;42.782;23.274;2023-08-06T11:02:22;94371.47;;;25.47
42119;BMP280;27783;42.782;23.274;2023-08-06T11:04:48;94368.09;;;25.36
42119;BMP280;27783;42.782;23.274;2023-08-06T11:07:14;94374.19;;;25.42
42119;BMP280;27783;42.782;23.274;2023-08-06T11:09:40;94366.38;;;25.96
42119;BMP280;27783;42.782;23.274;2023-08-06T11:12:12;94363.97;;;25.64
42119;BMP280;27783;42.782;23.274;2023-08-06T11:14:49;94365.53;;;25.49
42119;BMP280;27783;42.782;23.274;2023-08-06T11:17:15;94364.84;;;25.77
42119;BMP280;27783;42.782;23.274;2023-08-06T11:19:41;94361.66;;;25.73
42119;BMP280;27783;42.782;23.274;2023-08-06T11:22:06;94364.44;;;25.96
42119;BMP280;27783;42.782;23.274;2023-08-06T11:24:32;94363.78;;;25.85
42119;BMP280;27783;42.782;23.274;2023-08-06T11:26:58;94369.38;;;25.92
42119;BMP280;27783;42.782;23.274;2023-08-06T11:29:23;94356.78;;;26.24
42119;BMP280;27783;42.782;23.274;2023-08-06T11:31:49;94358.16;;;27.43
42119;BMP280;27783;42.782;23.274;2023-08-06T11:34:15;94355.78;;;27.70
42119;BMP280;27783;42.782;23.274;2023-08-06T11:36:42;94335.78;;;28.29
42119;BMP280;27783;42.782;23.274;2023-08-06T11:39:08;94354.59;;;27.96
42119;BMP280;27783;42.782;23.274;2023-08-06T11:41:36;94356.16;;;27.92
42119;BMP280;27783;42.782;23.274;2023-08-06T11:44:03;94344.22;;;27.70
42119;BMP280;27783;42.782;23.274;2023-08-06T11:46:29;94336.63;;;26.84
42119;BMP280;27783;42.782;23.274;2023-08-06T11:48:55;94341.69;;;26.57
42119;BMP280;27783;42.782;23.274;2023-08-06T11:51:25;94322.25;;;27.42
42119;BMP280;27783;42.782;23.274;2023-08-06T11:53:58;94332.25;;;28.34
42119;BMP280;27783;42.782;23.274;2023-08-06T11:56:27;94336.41;;;28.22
42119;BMP280;27783;42.782;23.274;2023-08-06T11:58:54;94310.44;;;28.52
42119;BMP280;27783;42.782;23.274;2023-08-06T12:01:20;94311.38;;;28.67
42119;BMP280;27783;42.782;23.274;2023-08-06T12:03:45;94308.97;;;28.63
42119;BMP280;27783;42.782;23.274;2023-08-06T12:06:11;94312.72;;;28.60
42119;BMP280;27783;42.782;23.274;2023-08-06T12:08:36;94308.06;;;29.06
42119;BMP280;27783;42.782;23.274;2023-08-06T12:11:03;94306.72;;;29.00
42119;BMP280;27783;42.782;23.274;2023-08-06T12:13:29;94296.66;;;29.40
42119;BMP280;27783;42.782;23.274;2023-08-06T12:15:57;94300.75;;;29.74
42119;BMP280;27783;42.782;23.274;2023-08-06T12:18:23;94303.47;;;29.34
42119;BMP280;27783;42.782;23.274;2023-08-06T12:20:48;94318.78;;;28.54
42119;BMP280;27783;42.782;23.274;2023-08-06T12:23:14;94299.50;;;29.35
42119;BMP280;27783;42.782;23.274;2023-08-06T12:25:41;94319.13;;;28.95
42119;BMP280;27783;42.782;23.274;2023-08-06T12:28:07;94304.72;;;29.00
42119;BMP280;27783;42.782;23.274;2023-08-06T12:30:33;94318.78;;;28.28
42119;BMP280;27783;42.782;23.274;2023-08-06T12:32:59;94314.53;;;27.64
42119;BMP280;27783;42.782;23.274;2023-08-06T12:35:24;94301.78;;;28.15
42119;BMP280;27783;42.782;23.274;2023-08-06T12:37:51;94311.25;;;28.59
42119;BMP280;27783;42.782;23.274;2023-08-06T12:40:20;94301.47;;;28.57
42119;BMP280;27783;42.782;23.274;2023-08-06T12:42:45;94308.59;;;28.34
42119;BMP280;27783;42.782;23.274;2023-08-06T12:45:11;94295.09;;;28.42
42119;BMP280;27783;42.782;23.274;2023-08-06T12:47:37;94293.75;;;28.60
42119;BMP280;27783;42.782;23.274;2023-08-06T12:50:03;94296.91;;;28.39
42119;BMP280;27783;42.782;23.274;2023-08-06T12:52:29;94300.69;;;27.68
42119;BMP280;27783;42.782;23.274;2023-08-06T12:54:55;94307.66;;;27.63
42119;BMP280;27783;42.782;23.274;2023-08-06T12:57:20;94307.31;;;28.10
42119;BMP280;27783;42.782;23.274;2023-08-06T12:59:47;94307.59;;;27.94
42119;BMP280;27783;42.782;23.274;2023-08-06T13:02:13;94300.22;;;27.94
42119;BMP280;27783;42.782;23.274;2023-08-06T13:04:39;94310.69;;;28.41
42119;BMP280;27783;42.782;23.274;2023-08-06T13:07:05;94296.91;;;28.14
42119;BMP280;27783;42.782;23.274;2023-08-06T13:09:32;94307.16;;;27.77
42119;BMP280;27783;42.782;23.274;2023-08-06T13:11:59;94314.06;;;27.78
42119;BMP280;27783;42.782;23.274;2023-08-06T13:14:25;94311.91;;;27.28
42119;BMP280;27783;42.782;23.274;2023-08-06T13:16:50;94321.81;;;27.69
42119;BMP280;27783;42.782;23.274;2023-08-06T13:19:16;94318.16;;;27.36
42119;BMP280;27783;42.782;23.274;2023-08-06T13:24:10;94316.09;;;28.41
42119;BMP280;27783;42.782;23.274;2023-08-06T13:26:37;94322.31;;;28.49
42119;BMP280;27783;42.782;23.274;2023-08-06T13:29:02;94319.81;;;28.76
42119;BMP280;27783;42.782;23.274;2023-08-06T13:31:28;94321.94;;;29.03
42119;BMP280;27783;42.782;23.274;2023-08-06T13:33:55;94316.06;;;28.66
42119;BMP280;27783;42.782;23.274;2023-08-06T13:36:21;94320.31;;;28.62
42119;BMP280;27783;42.782;23.274;2023-08-06T13:38:48;94304.38;;;28.71
42119;BMP280;27783;42.782;23.274;2023-08-06T13:41:16;94303.72;;;28.78
42119;BMP280;27783;42.782;23.274;2023-08-06T13:43:42;94299.41;;;28.95
42119;BMP280;27783;42.782;23.274;2023-08-06T13:46:08;94308.19;;;29.33
42119;BMP280;27783;42.782;23.274;2023-08-06T13:48:34;94303.81;;;28.85
42119;BMP280;27783;42.782;23.274;2023-08-06T13:51:00;94317.66;;;28.94
42119;BMP280;27783;42.782;23.274;2023-08-06T13:53:25;94317.63;;;28.75
42119;BMP280;27783;42.782;23.274;2023-08-06T13:55:55;94324.78;;;27.84
42119;BMP280;27783;42.782;23.274;2023-08-06T13:58:22;94313.69;;;28.12
42119;BMP280;27783;42.782;23.274;2023-08-06T14:00:49;94319.00;;;28.30
42119;BMP280;27783;42.782;23.274;2023-08-06T14:03:15;94302.50;;;28.79
42119;BMP280;27783;42.782;23.274;2023-08-06T14:05:41;94308.34;;;28.70
42119;BMP280;27783;42.782;23.274;2023-08-06T14:08:07;94293.25;;;28.94